createdAt,value
2023-02-16T00:00:39.886Z,6.43
2023-02-16T00:05:43.130Z,6.13
2023-02-16T00:11:08.262Z,8.17
2023-02-16T00:16:14.802Z,6.60
2023-02-16T00:21:18.745Z,5.30
2023-02-16T00:26:25.133Z,6.40
2023-02-16T00:31:33.011Z,6.27
2023-02-16T00:36:36.379Z,6.67
2023-02-16T00:41:54.150Z,6.17
2023-02-16T00:46:57.624Z,6.57
2023-02-16T00:52:01.049Z,6.30
2023-02-16T00:57:05.623Z,6.20
2023-02-16T01:02:09.423Z,6.30
2023-02-16T01:07:30.865Z,6.00
2023-02-16T01:12:35.714Z,5.50
2023-02-16T01:17:41.797Z,5.20
2023-02-16T01:22:45.061Z,5.60
2023-02-16T01:27:50.476Z,5.90
2023-02-16T01:32:53.683Z,5.70
2023-02-16T01:37:56.940Z,5.87
2023-02-16T01:43:05.300Z,6.37
2023-02-16T01:48:15.001Z,6.40
2023-02-16T01:53:24.633Z,5.47
2023-02-16T01:58:37.660Z,6.40
2023-02-16T02:03:58.304Z,6.80
2023-02-16T02:09:04.742Z,6.90
2023-02-16T02:14:14.755Z,7.20
2023-02-16T02:19:18.341Z,6.33
2023-02-16T02:25:18.334Z,6.20
2023-02-16T02:30:35.524Z,6.20
2023-02-16T02:35:50.611Z,6.60
2023-02-16T02:41:01.550Z,6.57
2023-02-16T02:46:14.146Z,6.47
2023-02-16T02:51:30.090Z,6.53
2023-02-16T02:56:53.820Z,6.63
2023-02-16T03:02:02.497Z,7.23
2023-02-16T03:07:07.847Z,6.40
2023-02-16T03:12:30.856Z,6.40
2023-02-16T03:17:55.747Z,6.67
2023-02-16T03:23:17.005Z,7.43
2023-02-16T03:28:44.774Z,7.93
2023-02-16T03:33:54.837Z,6.57
2023-02-16T03:38:59.564Z,7.23
2023-02-16T03:44:02.841Z,6.63
2023-02-16T03:49:07.640Z,6.50
2023-02-16T03:54:10.847Z,6.87
2023-02-16T03:59:13.936Z,6.50
2023-02-16T04:04:18.763Z,6.63
2023-02-16T04:09:21.942Z,7.33
2023-02-16T04:14:25.128Z,7.03
2023-02-16T04:19:30.855Z,6.83
2023-02-16T04:24:34.075Z,6.67
2023-02-16T04:29:37.427Z,6.63
2023-02-16T04:34:42.021Z,7.40
2023-02-16T04:39:45.454Z,7.20
2023-02-16T04:44:48.674Z,7.40
2023-02-16T04:49:53.651Z,6.77
2023-02-16T04:54:56.881Z,7.60
2023-02-16T05:00:00.300Z,7.57
2023-02-16T05:05:05.070Z,7.80
2023-02-16T05:10:09.350Z,7.50
2023-02-16T05:15:12.521Z,7.40
2023-02-16T05:20:17.029Z,7.07
2023-02-16T05:25:20.370Z,6.73
2023-02-16T05:30:23.671Z,6.53
2023-02-16T05:35:28.381Z,7.23
2023-02-16T05:40:31.751Z,7.30
2023-02-16T05:45:35.047Z,6.83
2023-02-16T05:50:39.601Z,7.87
2023-02-16T05:55:42.745Z,7.20
2023-02-16T06:00:46.179Z,8.33
2023-02-16T06:05:55.722Z,8.20
2023-02-16T06:10:59.318Z,5.93
2023-02-16T06:16:02.704Z,6.13
2023-02-16T06:21:07.427Z,6.80
2023-02-16T06:26:10.778Z,8.87
2023-02-16T06:31:14.253Z,8.00
2023-02-16T06:36:19.453Z,7.77
2023-02-16T06:41:33.691Z,10.80
2023-02-16T06:46:38.538Z,10.40
2023-02-16T06:51:43.303Z,9.47
2023-02-16T06:56:46.801Z,7.63
2023-02-16T07:01:50.234Z,8.30
2023-02-16T07:06:55.149Z,8.37
2023-02-16T07:11:58.439Z,6.83
2023-02-16T07:17:04.503Z,8.07
2023-02-16T07:22:09.136Z,7.60
2023-02-16T07:27:12.425Z,7.57
2023-02-16T07:32:15.987Z,6.77
2023-02-16T07:37:20.531Z,9.03
2023-02-16T07:42:23.846Z,9.60
2023-02-16T07:47:28.816Z,10.40
2023-02-16T07:52:33.265Z,9.90
2023-02-16T07:57:36.612Z,10.30
2023-02-16T08:02:41.281Z,11.53
2023-02-16T08:07:46.845Z,11.07
2023-02-16T08:12:50.943Z,17.30
2023-02-16T08:17:54.201Z,16.90
2023-02-16T08:22:59.523Z,15.40
2023-02-16T08:28:02.707Z,12.93
2023-02-16T08:33:05.954Z,14.10
2023-02-16T08:38:10.524Z,13.10
2023-02-16T08:43:13.747Z,12.00
2023-02-16T08:48:18.214Z,12.87
2023-02-16T08:53:23.931Z,12.57
2023-02-16T08:58:27.634Z,10.33
2023-02-16T09:03:32.642Z,11.20
2023-02-16T09:08:38.520Z,10.07
2023-02-16T09:13:42.370Z,10.07
2023-02-16T09:18:46.695Z,9.97
2023-02-16T09:23:52.214Z,9.77
2023-02-16T09:28:56.392Z,10.60
2023-02-16T09:34:04.014Z,9.57
2023-02-16T09:39:08.648Z,9.70
2023-02-16T09:44:23.549Z,10.03
2023-02-16T09:49:32.487Z,10.37
2023-02-16T09:54:43.945Z,11.37
2023-02-16T09:59:53.361Z,10.50
2023-02-16T10:05:17.366Z,11.70
2023-02-16T10:10:25.410Z,11.30
2023-02-16T10:15:31.463Z,10.43
2023-02-16T10:20:37.542Z,12.00
2023-02-16T10:25:48.883Z,11.60
2023-02-16T10:30:59.561Z,11.50
2023-02-16T10:36:12.055Z,12.97
2023-02-16T10:41:27.886Z,11.97
2023-02-16T10:46:35.401Z,10.47
2023-02-16T10:51:40.570Z,11.17
2023-02-16T10:56:52.413Z,9.57
2023-02-16T11:01:59.278Z,9.83
2023-02-16T11:07:05.101Z,7.80
2023-02-16T11:12:34.584Z,8.40
2023-02-16T11:17:51.003Z,7.80
2023-02-16T11:22:54.133Z,8.10
2023-02-16T11:28:02.110Z,7.57
2023-02-16T11:33:19.614Z,6.20
2023-02-16T11:38:31.892Z,5.73
2023-02-16T11:43:40.234Z,7.83
2023-02-16T11:48:44.812Z,7.97
2023-02-16T11:54:01.424Z,6.60
2023-02-16T11:59:12.824Z,6.70
2023-02-16T12:04:32.596Z,6.73
2023-02-16T12:09:44.763Z,5.93
2023-02-16T12:15:03.653Z,6.90
2023-02-16T12:20:25.629Z,5.63
2023-02-16T12:25:39.041Z,5.60
2023-02-16T12:30:56.702Z,5.90
2023-02-16T12:36:16.831Z,7.07
2023-02-16T12:41:29.697Z,7.10
2023-02-16T12:46:39.403Z,6.40
2023-02-16T12:51:49.388Z,6.07
2023-02-16T12:56:59.269Z,6.70
2023-02-16T13:02:13.294Z,5.37
2023-02-16T13:07:22.826Z,6.90
2023-02-16T13:12:32.669Z,5.47
2023-02-16T13:17:43.147Z,5.70
2023-02-16T13:23:25.535Z,6.40
2023-02-16T13:28:48.478Z,5.67
2023-02-16T13:34:06.821Z,6.20
2023-02-16T13:39:27.034Z,6.00
2023-02-16T13:44:36.807Z,6.33
2023-02-16T13:49:43.661Z,7.77
2023-02-16T13:54:50.740Z,7.97
2023-02-16T14:00:02.200Z,7.43
2023-02-16T14:05:13.357Z,7.80
2023-02-16T14:10:16.936Z,8.17
2023-02-16T14:15:21.926Z,7.23
2023-02-16T14:20:31.267Z,9.00
2023-02-16T14:25:41.577Z,8.37
2023-02-16T14:30:50.693Z,8.97
2023-02-16T14:36:14.685Z,9.17
2023-02-16T14:41:28.133Z,9.37
2023-02-16T14:46:47.131Z,9.00
2023-02-16T14:52:22.984Z,9.10
2023-02-16T14:57:34.438Z,9.40
2023-02-16T15:02:41.418Z,8.80
2023-02-16T15:07:48.048Z,8.90
2023-02-16T15:12:51.302Z,9.87
2023-02-16T15:17:55.982Z,9.43
2023-02-16T15:23:02.605Z,9.00
2023-02-16T15:28:18.923Z,10.07
2023-02-16T15:33:36.408Z,9.80
2023-02-16T15:38:43.245Z,9.23
2023-02-16T15:43:48.458Z,9.87
2023-02-16T15:48:51.781Z,10.30
2023-02-16T15:53:58.493Z,9.17
2023-02-16T15:59:04.926Z,9.20
2023-02-16T16:04:18.674Z,10.20
2023-02-16T16:09:26.337Z,9.73
2023-02-16T16:14:30.729Z,8.97
2023-02-16T16:19:36.374Z,9.70
2023-02-16T16:24:45.376Z,10.07
2023-02-16T16:29:49.399Z,10.20
2023-02-16T16:34:53.080Z,10.57
2023-02-16T16:40:05.619Z,9.17
2023-02-16T16:45:36.364Z,8.53
2023-02-16T16:50:41.161Z,9.60
2023-02-16T16:55:48.602Z,10.20
2023-02-16T17:00:52.086Z,9.00
2023-02-16T17:05:55.414Z,10.10
2023-02-16T17:11:00.222Z,10.27
2023-02-16T17:16:07.750Z,13.03
2023-02-16T17:21:13.495Z,11.60
2023-02-16T17:26:18.477Z,12.23
2023-02-16T17:31:22.253Z,10.90
2023-02-16T17:36:27.359Z,12.87
2023-02-16T17:41:32.168Z,11.63
2023-02-16T17:46:35.553Z,11.70
2023-02-16T17:51:39.225Z,13.23
2023-02-16T17:56:46.257Z,13.47
2023-02-16T18:01:49.490Z,20.70
2023-02-16T18:06:52.893Z,12.60
2023-02-16T18:11:57.817Z,10.80
2023-02-16T18:17:01.582Z,9.87
2023-02-16T18:22:05.131Z,9.50
2023-02-16T18:27:09.744Z,11.23
2023-02-16T18:32:13.082Z,10.27
2023-02-16T18:37:16.779Z,10.47
2023-02-16T18:42:21.977Z,10.47
2023-02-16T18:47:25.405Z,11.20
2023-02-16T18:52:28.693Z,11.57
2023-02-16T18:57:33.414Z,11.83
2023-02-16T19:02:37.231Z,15.10
2023-02-16T19:07:42.371Z,10.27
2023-02-16T19:12:47.740Z,9.67
2023-02-16T19:17:50.878Z,15.97
2023-02-16T19:22:54.799Z,14.67
2023-02-16T19:27:59.468Z,13.70
2023-02-16T19:33:03.088Z,13.97
2023-02-16T19:38:07.414Z,13.40
2023-02-16T19:43:12.042Z,12.50
2023-02-16T19:48:15.522Z,17.83
2023-02-16T19:53:18.965Z,12.90
2023-02-16T19:58:24.253Z,11.40
2023-02-16T20:03:27.923Z,8.90
2023-02-16T20:08:31.205Z,9.90
2023-02-16T20:13:36.486Z,9.10
2023-02-16T20:18:40.754Z,9.50
2023-02-16T20:23:44.785Z,9.10
2023-02-16T20:28:50.595Z,9.27
2023-02-16T20:33:54.135Z,9.23
2023-02-16T20:38:57.679Z,10.10
2023-02-16T20:44:03.150Z,8.70
2023-02-16T20:49:07.263Z,9.47
2023-02-16T20:54:10.851Z,8.83
2023-02-16T20:59:16.235Z,8.40
2023-02-16T21:04:20.326Z,8.80
2023-02-16T21:09:23.716Z,9.90
2023-02-16T21:14:28.608Z,10.27
2023-02-16T21:19:31.951Z,10.20
2023-02-16T21:24:35.457Z,10.80
2023-02-16T21:29:40.142Z,11.53
2023-02-16T21:34:43.769Z,11.03
2023-02-16T21:40:04.994Z,9.67
2023-02-16T21:45:17.519Z,10.90
2023-02-16T21:50:20.739Z,10.83
2023-02-16T21:55:41.325Z,10.20
2023-02-16T22:00:51.101Z,11.93
2023-02-16T22:05:54.314Z,11.57
2023-02-16T22:10:57.382Z,11.50
2023-02-16T22:16:02.109Z,12.03
2023-02-16T22:21:06.229Z,11.97
2023-02-16T22:26:09.901Z,11.17
2023-02-16T22:31:14.646Z,11.90
2023-02-16T22:36:17.762Z,12.17
2023-02-16T22:41:21.372Z,10.93
2023-02-16T22:46:26.124Z,11.80
2023-02-16T22:51:30.705Z,9.47
2023-02-16T22:56:34.468Z,11.40
2023-02-16T23:01:40.037Z,11.47
2023-02-16T23:06:44.913Z,9.83
2023-02-16T23:11:48.551Z,9.80
2023-02-16T23:16:54.779Z,9.77
2023-02-16T23:21:58.247Z,9.80
2023-02-16T23:27:01.448Z,8.90
2023-02-16T23:32:07.630Z,9.30
2023-02-16T23:37:10.888Z,9.80
2023-02-16T23:42:14.447Z,9.50
2023-02-16T23:47:19.899Z,9.20
2023-02-16T23:52:23.938Z,9.90
2023-02-16T23:57:27.159Z,9.33
